Moriarty, NM

10:26 AM MDT on March 29, 2015 (GMT -0600)
Moriarty | | Change Station
CLOSE
Current Station
Airport
Location: Moriarty,
Elevation: 6198 ft
Nearby Weather Stations

Elev 6198 ft 34.99 °N, 106.01 °W | Updated 11 minutes ago

Clear
Clear
70 °F
Feels Like 70 °F
N
13
Wind Variable Wind from NW

Today
High -- | Low -- °F
--% Chance of Precip.
Yesterday
High -- | Low -- °F
Precip. -- in
6:55 AM 7:22 PM
Waxing Gibbous, 72% visible
Pressure 30.28 in
Visibility 10.0 miles
Clouds Clear
Dew Point 14 °F
Humidity 12%
Rainfall 0.00 in
Snow Depth Not available.
UV 5 out of 12
Pollen 11.00 out of 12
Air Quality Not available.
Flu Activity Not available.
METAR K0E0 291615Z AUTO 31011KT 10SM CLR 21/M10 A3028 RMK AO2 T02101100

More Conditions Fewer Conditions

Pressure 30.28 in
Visibility 10.0 miles
Clouds Clear
Dew Point 14 °F
Humidity 12%
Rainfall 0.00 in
Snow Depth Not available.
UV 5 out of 12
Pollen 11.00 out of 12
Air Quality Not available.
Flu Activity Not available.
METAR K0E0 291615Z AUTO 31011KT 10SM CLR 21/M10 A3028 RMK AO2 T02101100

More Conditions Fewer Conditions

10-Day Weather Forecast

Almanac

Astronomy

Mar. 29, 2015 Rise Set
Actual Time
Civil Twilight
Nautical Twilight
Astronomical Twilight
Moon
Length of Visible Light
Length of Day
Tomorrow will be .
, % of the Moon is Illuminated

Today's Extremes

State Highs State Lows

Community

WunderPhotos

Upload Photos

1,809,284 photos uploaded!

WunderBlogs® & News

Nearby

Air Quality

  Air Quality AQ Index Pollutant
Not available.

Snow Depth

Station Depth Elevation

Earthquake Activity

City Distance Mag. Time & Date
Minimum magnitude displayed is 2.5.

Coastal Water Temperatures

Place Temperature

Stations

Nearby Weather Stations

Station Location Temp. Windchill Dew Point Humidity Wind Precip. Elev Updated Type